sensor_id;sensor_type;location;lat;lon;timestamp;P1;durP1;ratioP1;P2;durP2;ratioP2
6422;SDS011;3244;42.708;23.288;2023-04-30T00:01:14;13.98;;;9.90;;
6422;SDS011;3244;42.708;23.288;2023-04-30T00:03:41;15.88;;;9.30;;
6422;SDS011;3244;42.708;23.288;2023-04-30T00:06:09;10.25;;;8.93;;
6422;SDS011;3244;42.708;23.288;2023-04-30T00:08:36;12.77;;;9.23;;
6422;SDS011;3244;42.708;23.288;2023-04-30T00:11:02;13.80;;;7.82;;
6422;SDS011;3244;42.708;23.288;2023-04-30T00:13:29;12.82;;;8.88;;
6422;SDS011;3244;42.708;23.288;2023-04-30T00:15:56;11.40;;;7.95;;
6422;SDS011;3244;42.708;23.288;2023-04-30T00:18:23;8.93;;;8.00;;
6422;SDS011;3244;42.708;23.288;2023-04-30T00:20:50;8.93;;;7.93;;
6422;SDS011;3244;42.708;23.288;2023-04-30T00:23:19;11.05;;;7.80;;
6422;SDS011;3244;42.708;23.288;2023-04-30T00:25:45;10.77;;;8.18;;
6422;SDS011;3244;42.708;23.288;2023-04-30T00:28:12;8.00;;;7.20;;
6422;SDS011;3244;42.708;23.288;2023-04-30T00:30:39;12.02;;;7.57;;
6422;SDS011;3244;42.708;23.288;2023-04-30T00:33:05;10.23;;;7.60;;
6422;SDS011;3244;42.708;23.288;2023-04-30T00:35:32;8.38;;;6.80;;
6422;SDS011;3244;42.708;23.288;2023-04-30T00:37:59;11.45;;;7.38;;
6422;SDS011;3244;42.708;23.288;2023-04-30T00:40:27;11.60;;;6.57;;
6422;SDS011;3244;42.708;23.288;2023-04-30T00:42:53;11.52;;;7.30;;
6422;SDS011;3244;42.708;23.288;2023-04-30T00:45:20;9.27;;;7.53;;
6422;SDS011;3244;42.708;23.288;2023-04-30T00:47:47;10.02;;;6.85;;
6422;SDS011;3244;42.708;23.288;2023-04-30T00:50:14;9.52;;;7.38;;
6422;SDS011;3244;42.708;23.288;2023-04-30T00:52:41;7.65;;;6.47;;
6422;SDS011;3244;42.708;23.288;2023-04-30T00:55:08;13.60;;;6.97;;
6422;SDS011;3244;42.708;23.288;2023-04-30T00:57:37;9.82;;;6.65;;
6422;SDS011;3244;42.708;23.288;2023-04-30T01:00:06;9.43;;;7.50;;
6422;SDS011;3244;42.708;23.288;2023-04-30T01:02:35;7.03;;;5.85;;
6422;SDS011;3244;42.708;23.288;2023-04-30T01:05:02;6.65;;;6.03;;
6422;SDS011;3244;42.708;23.288;2023-04-30T01:07:30;13.20;;;6.68;;
6422;SDS011;3244;42.708;23.288;2023-04-30T01:09:57;7.93;;;7.13;;
6422;SDS011;3244;42.708;23.288;2023-04-30T01:12:25;8.20;;;7.20;;
6422;SDS011;3244;42.708;23.288;2023-04-30T01:15:03;11.18;;;6.90;;
6422;SDS011;3244;42.708;23.288;2023-04-30T01:17:40;11.88;;;7.38;;
6422;SDS011;3244;42.708;23.288;2023-04-30T01:20:13;10.43;;;6.75;;
6422;SDS011;3244;42.708;23.288;2023-04-30T01:22:44;9.57;;;6.90;;
6422;SDS011;3244;42.708;23.288;2023-04-30T01:25:31;7.70;;;6.85;;
6422;SDS011;3244;42.708;23.288;2023-04-30T01:28:08;9.68;;;7.00;;
6422;SDS011;3244;42.708;23.288;2023-04-30T01:30:39;8.45;;;7.65;;
6422;SDS011;3244;42.708;23.288;2023-04-30T01:33:08;13.13;;;7.70;;
6422;SDS011;3244;42.708;23.288;2023-04-30T01:38:32;10.23;;;7.75;;
6422;SDS011;3244;42.708;23.288;2023-04-30T01:41:13;8.75;;;7.97;;
6422;SDS011;3244;42.708;23.288;2023-04-30T01:43:49;8.77;;;7.65;;
6422;SDS011;3244;42.708;23.288;2023-04-30T01:46:24;12.15;;;7.60;;
6422;SDS011;3244;42.708;23.288;2023-04-30T01:48:57;10.07;;;7.82;;
6422;SDS011;3244;42.708;23.288;2023-04-30T01:51:29;8.23;;;7.20;;
6422;SDS011;3244;42.708;23.288;2023-04-30T01:54:05;12.55;;;7.75;;
6422;SDS011;3244;42.708;23.288;2023-04-30T01:56:39;15.32;;;7.85;;
6422;SDS011;3244;42.708;23.288;2023-04-30T01:59:12;13.32;;;7.45;;
6422;SDS011;3244;42.708;23.288;2023-04-30T02:01:41;8.50;;;7.70;;
6422;SDS011;3244;42.708;23.288;2023-04-30T02:04:07;13.07;;;8.18;;
6422;SDS011;3244;42.708;23.288;2023-04-30T02:06:34;9.50;;;7.13;;
6422;SDS011;3244;42.708;23.288;2023-04-30T02:09:01;9.23;;;6.93;;
6422;SDS011;3244;42.708;23.288;2023-04-30T02:11:30;9.57;;;7.28;;
6422;SDS011;3244;42.708;23.288;2023-04-30T02:13:57;7.57;;;6.82;;
6422;SDS011;3244;42.708;23.288;2023-04-30T02:16:25;17.45;;;8.20;;
6422;SDS011;3244;42.708;23.288;2023-04-30T02:18:51;8.45;;;7.45;;
6422;SDS011;3244;42.708;23.288;2023-04-30T02:21:18;13.55;;;8.35;;
6422;SDS011;3244;42.708;23.288;2023-04-30T02:23:45;8.13;;;6.72;;
6422;SDS011;3244;42.708;23.288;2023-04-30T02:26:12;9.75;;;8.20;;
6422;SDS011;3244;42.708;23.288;2023-04-30T02:28:38;9.73;;;7.47;;
6422;SDS011;3244;42.708;23.288;2023-04-30T02:31:06;8.23;;;7.13;;
6422;SDS011;3244;42.708;23.288;2023-04-30T02:33:34;13.50;;;6.65;;
6422;SDS011;3244;42.708;23.288;2023-04-30T02:36:01;10.93;;;7.45;;
6422;SDS011;3244;42.708;23.288;2023-04-30T02:38:27;8.82;;;7.90;;
6422;SDS011;3244;42.708;23.288;2023-04-30T02:40:54;9.98;;;8.10;;
6422;SDS011;3244;42.708;23.288;2023-04-30T02:43:21;10.63;;;7.65;;
6422;SDS011;3244;42.708;23.288;2023-04-30T02:45:48;13.95;;;7.43;;
6422;SDS011;3244;42.708;23.288;2023-04-30T02:48:14;13.30;;;8.05;;
6422;SDS011;3244;42.708;23.288;2023-04-30T02:50:42;11.18;;;8.13;;
6422;SDS011;3244;42.708;23.288;2023-04-30T02:53:09;13.25;;;7.88;;
6422;SDS011;3244;42.708;23.288;2023-04-30T02:55:36;14.35;;;7.10;;
6422;SDS011;3244;42.708;23.288;2023-04-30T02:58:03;9.32;;;7.28;;
6422;SDS011;3244;42.708;23.288;2023-04-30T03:00:29;10.27;;;8.55;;
6422;SDS011;3244;42.708;23.288;2023-04-30T03:02:56;16.30;;;7.53;;
6422;SDS011;3244;42.708;23.288;2023-04-30T03:05:23;8.93;;;8.02;;
6422;SDS011;3244;42.708;23.288;2023-04-30T03:07:51;8.80;;;7.90;;
6422;SDS011;3244;42.708;23.288;2023-04-30T03:10:17;10.48;;;8.05;;
6422;SDS011;3244;42.708;23.288;2023-04-30T03:12:44;10.15;;;8.60;;
6422;SDS011;3244;42.708;23.288;2023-04-30T03:15:11;15.00;;;9.00;;
6422;SDS011;3244;42.708;23.288;2023-04-30T03:17:38;9.40;;;8.18;;
6422;SDS011;3244;42.708;23.288;2023-04-30T03:20:05;13.70;;;7.40;;
6422;SDS011;3244;42.708;23.288;2023-04-30T03:22:32;10.32;;;7.65;;
6422;SDS011;3244;42.708;23.288;2023-04-30T03:25:00;9.52;;;7.07;;
6422;SDS011;3244;42.708;23.288;2023-04-30T03:27:27;9.30;;;8.40;;
6422;SDS011;3244;42.708;23.288;2023-04-30T03:29:54;9.88;;;6.68;;
6422;SDS011;3244;42.708;23.288;2023-04-30T03:32:20;8.95;;;7.15;;
6422;SDS011;3244;42.708;23.288;2023-04-30T03:34:47;7.82;;;7.10;;
6422;SDS011;3244;42.708;23.288;2023-04-30T03:37:14;12.13;;;8.23;;
6422;SDS011;3244;42.708;23.288;2023-04-30T03:39:41;15.88;;;7.88;;
6422;SDS011;3244;42.708;23.288;2023-04-30T03:42:09;9.02;;;7.70;;
6422;SDS011;3244;42.708;23.288;2023-04-30T03:44:35;11.68;;;7.80;;
6422;SDS011;3244;42.708;23.288;2023-04-30T03:47:03;8.55;;;7.38;;
6422;SDS011;3244;42.708;23.288;2023-04-30T03:49:30;9.32;;;5.95;;
6422;SDS011;3244;42.708;23.288;2023-04-30T03:51:56;7.18;;;5.47;;
6422;SDS011;3244;42.708;23.288;2023-04-30T03:54:23;6.68;;;4.53;;
6422;SDS011;3244;42.708;23.288;2023-04-30T03:56:50;5.22;;;4.72;;
6422;SDS011;3244;42.708;23.288;2023-04-30T03:59:18;8.00;;;5.20;;
6422;SDS011;3244;42.708;23.288;2023-04-30T04:01:45;5.93;;;4.95;;
6422;SDS011;3244;42.708;23.288;2023-04-30T04:04:11;4.68;;;4.30;;
6422;SDS011;3244;42.708;23.288;2023-04-30T04:06:39;4.72;;;4.13;;
6422;SDS011;3244;42.708;23.288;2023-04-30T04:09:05;7.90;;;5.38;;
6422;SDS011;3244;42.708;23.288;2023-04-30T04:11:32;4.63;;;4.32;;
6422;SDS011;3244;42.708;23.288;2023-04-30T04:13:59;6.50;;;4.72;;
6422;SDS011;3244;42.708;23.288;2023-04-30T04:16:27;4.40;;;4.05;;
6422;SDS011;3244;42.708;23.288;2023-04-30T04:18:54;5.68;;;5.00;;
6422;SDS011;3244;42.708;23.288;2023-04-30T04:21:21;5.35;;;4.88;;
6422;SDS011;3244;42.708;23.288;2023-04-30T04:23:48;5.25;;;4.75;;
6422;SDS011;3244;42.708;23.288;2023-04-30T04:26:15;5.18;;;4.20;;
6422;SDS011;3244;42.708;23.288;2023-04-30T04:28:43;6.22;;;4.65;;
6422;SDS011;3244;42.708;23.288;2023-04-30T04:31:10;5.35;;;4.75;;
6422;SDS011;3244;42.708;23.288;2023-04-30T04:33:38;5.35;;;4.85;;
6422;SDS011;3244;42.708;23.288;2023-04-30T04:36:05;5.18;;;4.78;;
6422;SDS011;3244;42.708;23.288;2023-04-30T04:38:32;5.18;;;4.55;;
6422;SDS011;3244;42.708;23.288;2023-04-30T04:40:59;7.40;;;4.68;;
6422;SDS011;3244;42.708;23.288;2023-04-30T04:43:26;6.93;;;5.45;;
6422;SDS011;3244;42.708;23.288;2023-04-30T04:45:52;5.30;;;4.07;;
6422;SDS011;3244;42.708;23.288;2023-04-30T04:48:19;5.07;;;4.53;;
6422;SDS011;3244;42.708;23.288;2023-04-30T04:50:47;4.95;;;4.55;;
6422;SDS011;3244;42.708;23.288;2023-04-30T04:53:14;5.88;;;4.65;;
6422;SDS011;3244;42.708;23.288;2023-04-30T04:55:40;4.97;;;4.57;;
6422;SDS011;3244;42.708;23.288;2023-04-30T04:58:07;5.05;;;4.60;;
6422;SDS011;3244;42.708;23.288;2023-04-30T05:00:34;6.63;;;5.38;;
6422;SDS011;3244;42.708;23.288;2023-04-30T05:03:01;8.70;;;5.30;;
6422;SDS011;3244;42.708;23.288;2023-04-30T05:05:28;6.75;;;5.80;;
6422;SDS011;3244;42.708;23.288;2023-04-30T05:07:56;6.78;;;6.07;;
6422;SDS011;3244;42.708;23.288;2023-04-30T05:10:23;5.72;;;5.15;;
6422;SDS011;3244;42.708;23.288;2023-04-30T05:12:49;6.68;;;6.07;;
6422;SDS011;3244;42.708;23.288;2023-04-30T05:15:16;7.80;;;7.03;;
6422;SDS011;3244;42.708;23.288;2023-04-30T05:17:43;11.23;;;6.70;;
6422;SDS011;3244;42.708;23.288;2023-04-30T05:20:10;10.27;;;7.43;;
6422;SDS011;3244;42.708;23.288;2023-04-30T05:22:37;10.32;;;8.40;;
6422;SDS011;3244;42.708;23.288;2023-04-30T05:25:06;11.48;;;8.43;;
6422;SDS011;3244;42.708;23.288;2023-04-30T05:27:33;10.35;;;7.60;;
6422;SDS011;3244;42.708;23.288;2023-04-30T05:30:00;11.65;;;8.68;;
6422;SDS011;3244;42.708;23.288;2023-04-30T05:32:27;10.93;;;7.10;;
6422;SDS011;3244;42.708;23.288;2023-04-30T05:34:54;10.35;;;6.85;;
6422;SDS011;3244;42.708;23.288;2023-04-30T05:37:21;6.70;;;6.03;;
6422;SDS011;3244;42.708;23.288;2023-04-30T05:39:47;13.65;;;6.70;;
6422;SDS011;3244;42.708;23.288;2023-04-30T05:42:15;7.55;;;6.88;;
6422;SDS011;3244;42.708;23.288;2023-04-30T05:44:42;8.93;;;6.45;;
6422;SDS011;3244;42.708;23.288;2023-04-30T05:47:09;12.18;;;6.10;;
6422;SDS011;3244;42.708;23.288;2023-04-30T05:49:35;11.40;;;6.63;;
6422;SDS011;3244;42.708;23.288;2023-04-30T05:52:02;8.32;;;6.18;;
6422;SDS011;3244;42.708;23.288;2023-04-30T05:54:29;15.23;;;7.32;;
6422;SDS011;3244;42.708;23.288;2023-04-30T05:56:56;9.52;;;7.30;;
6422;SDS011;3244;42.708;23.288;2023-04-30T05:59:24;7.57;;;6.88;;
6422;SDS011;3244;42.708;23.288;2023-04-30T06:01:51;8.25;;;6.57;;
6422;SDS011;3244;42.708;23.288;2023-04-30T06:04:18;7.85;;;6.57;;
6422;SDS011;3244;42.708;23.288;2023-04-30T06:06:44;12.07;;;6.82;;
6422;SDS011;3244;42.708;23.288;2023-04-30T06:09:11;8.75;;;6.57;;
6422;SDS011;3244;42.708;23.288;2023-04-30T06:11:38;13.70;;;6.45;;
6422;SDS011;3244;42.708;23.288;2023-04-30T06:14:04;13.00;;;6.55;;
6422;SDS011;3244;42.708;23.288;2023-04-30T06:16:33;10.30;;;7.28;;
6422;SDS011;3244;42.708;23.288;2023-04-30T06:18:59;8.82;;;6.80;;
6422;SDS011;3244;42.708;23.288;2023-04-30T06:21:26;9.93;;;7.65;;
6422;SDS011;3244;42.708;23.288;2023-04-30T06:23:53;9.82;;;6.20;;
6422;SDS011;3244;42.708;23.288;2023-04-30T06:26:20;9.73;;;6.65;;
6422;SDS011;3244;42.708;23.288;2023-04-30T06:28:46;12.93;;;7.22;;
6422;SDS011;3244;42.708;23.288;2023-04-30T06:31:13;7.38;;;6.55;;
6422;SDS011;3244;42.708;23.288;2023-04-30T06:33:41;8.35;;;7.43;;
6422;SDS011;3244;42.708;23.288;2023-04-30T06:36:08;12.18;;;8.35;;
6422;SDS011;3244;42.708;23.288;2023-04-30T06:38:34;11.45;;;10.20;;
6422;SDS011;3244;42.708;23.288;2023-04-30T06:41:01;17.80;;;13.57;;
6422;SDS011;3244;42.708;23.288;2023-04-30T06:43:28;13.43;;;12.13;;
6422;SDS011;3244;42.708;23.288;2023-04-30T06:45:55;10.57;;;9.25;;
6422;SDS011;3244;42.708;23.288;2023-04-30T06:48:21;16.13;;;13.80;;
6422;SDS011;3244;42.708;23.288;2023-04-30T06:50:50;10.02;;;8.98;;
6422;SDS011;3244;42.708;23.288;2023-04-30T06:53:16;11.02;;;8.25;;
6422;SDS011;3244;42.708;23.288;2023-04-30T06:55:43;10.85;;;7.45;;
6422;SDS011;3244;42.708;23.288;2023-04-30T06:58:10;10.35;;;7.68;;
6422;SDS011;3244;42.708;23.288;2023-04-30T07:00:37;8.40;;;7.20;;
6422;SDS011;3244;42.708;23.288;2023-04-30T07:03:04;9.70;;;6.97;;
6422;SDS011;3244;42.708;23.288;2023-04-30T07:05:31;11.27;;;7.10;;
6422;SDS011;3244;42.708;23.288;2023-04-30T07:08:00;10.18;;;7.30;;
6422;SDS011;3244;42.708;23.288;2023-04-30T07:10:27;7.93;;;6.55;;
6422;SDS011;3244;42.708;23.288;2023-04-30T07:12:55;12.82;;;7.55;;
6422;SDS011;3244;42.708;23.288;2023-04-30T07:15:22;9.48;;;6.90;;
6422;SDS011;3244;42.708;23.288;2023-04-30T07:17:49;9.63;;;7.60;;
6422;SDS011;3244;42.708;23.288;2023-04-30T07:20:15;15.43;;;6.90;;
6422;SDS011;3244;42.708;23.288;2023-04-30T07:22:42;10.55;;;7.78;;
6422;SDS011;3244;42.708;23.288;2023-04-30T07:25:11;8.27;;;7.47;;
6422;SDS011;3244;42.708;23.288;2023-04-30T07:27:38;13.65;;;7.55;;
6422;SDS011;3244;42.708;23.288;2023-04-30T07:30:06;10.55;;;7.57;;
6422;SDS011;3244;42.708;23.288;2023-04-30T07:32:34;10.05;;;6.82;;
6422;SDS011;3244;42.708;23.288;2023-04-30T07:35:01;10.07;;;7.45;;
6422;SDS011;3244;42.708;23.288;2023-04-30T07:37:28;13.95;;;7.20;;
6422;SDS011;3244;42.708;23.288;2023-04-30T07:39:55;11.02;;;6.97;;
6422;SDS011;3244;42.708;23.288;2023-04-30T07:42:23;7.88;;;6.40;;
6422;SDS011;3244;42.708;23.288;2023-04-30T07:44:50;9.65;;;6.95;;
6422;SDS011;3244;42.708;23.288;2023-04-30T07:47:18;9.98;;;6.72;;
6422;SDS011;3244;42.708;23.288;2023-04-30T07:49:45;9.68;;;7.00;;
6422;SDS011;3244;42.708;23.288;2023-04-30T07:52:11;6.40;;;5.85;;
6422;SDS011;3244;42.708;23.288;2023-04-30T07:54:38;6.95;;;6.28;;
6422;SDS011;3244;42.708;23.288;2023-04-30T07:57:05;10.05;;;5.68;;
6422;SDS011;3244;42.708;23.288;2023-04-30T07:59:33;12.77;;;5.97;;
6422;SDS011;3244;42.708;23.288;2023-04-30T08:02:00;7.82;;;5.65;;
6422;SDS011;3244;42.708;23.288;2023-04-30T08:04:27;7.50;;;4.93;;
6422;SDS011;3244;42.708;23.288;2023-04-30T08:06:54;6.75;;;4.55;;
6422;SDS011;3244;42.708;23.288;2023-04-30T08:09:21;7.03;;;4.03;;
6422;SDS011;3244;42.708;23.288;2023-04-30T08:11:47;6.68;;;4.50;;
6422;SDS011;3244;42.708;23.288;2023-04-30T08:14:14;7.85;;;4.43;;
6422;SDS011;3244;42.708;23.288;2023-04-30T08:16:42;10.88;;;4.40;;
6422;SDS011;3244;42.708;23.288;2023-04-30T08:19:09;6.68;;;4.68;;
6422;SDS011;3244;42.708;23.288;2023-04-30T08:21:36;5.65;;;4.88;;
6422;SDS011;3244;42.708;23.288;2023-04-30T08:24:03;5.85;;;3.85;;
6422;SDS011;3244;42.708;23.288;2023-04-30T08:26:30;6.95;;;4.00;;
6422;SDS011;3244;42.708;23.288;2023-04-30T08:28:57;4.93;;;4.43;;
6422;SDS011;3244;42.708;23.288;2023-04-30T08:31:23;4.55;;;4.15;;
6422;SDS011;3244;42.708;23.288;2023-04-30T08:33:51;5.18;;;4.72;;
6422;SDS011;3244;42.708;23.288;2023-04-30T08:36:18;7.28;;;5.43;;
6422;SDS011;3244;42.708;23.288;2023-04-30T08:38:45;6.28;;;5.82;;
6422;SDS011;3244;42.708;23.288;2023-04-30T08:41:12;7.38;;;6.45;;
6422;SDS011;3244;42.708;23.288;2023-04-30T08:43:40;6.07;;;5.40;;
6422;SDS011;3244;42.708;23.288;2023-04-30T08:46:08;8.32;;;4.07;;
6422;SDS011;3244;42.708;23.288;2023-04-30T08:48:37;5.03;;;4.63;;
6422;SDS011;3244;42.708;23.288;2023-04-30T08:51:07;5.72;;;5.22;;
6422;SDS011;3244;42.708;23.288;2023-04-30T08:53:34;10.13;;;3.67;;
6422;SDS011;3244;42.708;23.288;2023-04-30T08:56:02;4.50;;;3.60;;
6422;SDS011;3244;42.708;23.288;2023-04-30T08:58:28;3.20;;;2.88;;
6422;SDS011;3244;42.708;23.288;2023-04-30T09:00:56;4.63;;;2.78;;
6422;SDS011;3244;42.708;23.288;2023-04-30T09:03:24;2.80;;;2.60;;
6422;SDS011;3244;42.708;23.288;2023-04-30T09:05:52;2.67;;;2.58;;
6422;SDS011;3244;42.708;23.288;2023-04-30T09:08:39;4.50;;;2.67;;
6422;SDS011;3244;42.708;23.288;2023-04-30T09:11:18;3.42;;;2.70;;
6422;SDS011;3244;42.708;23.288;2023-04-30T09:13:48;4.22;;;2.85;;
6422;SDS011;3244;42.708;23.288;2023-04-30T09:16:18;7.20;;;6.63;;
6422;SDS011;3244;42.708;23.288;2023-04-30T09:18:45;13.20;;;11.75;;
6422;SDS011;3244;42.708;23.288;2023-04-30T09:21:12;14.82;;;12.68;;
6422;SDS011;3244;42.708;23.288;2023-04-30T09:23:56;7.28;;;4.47;;
6422;SDS011;3244;42.708;23.288;2023-04-30T09:26:30;12.25;;;11.07;;
6422;SDS011;3244;42.708;23.288;2023-04-30T09:28:58;3.67;;;2.85;;
6422;SDS011;3244;42.708;23.288;2023-04-30T09:31:31;4.68;;;4.28;;
6422;SDS011;3244;42.708;23.288;2023-04-30T09:33:59;6.72;;;3.55;;
6422;SDS011;3244;42.708;23.288;2023-04-30T09:36:25;3.38;;;3.03;;
6422;SDS011;3244;42.708;23.288;2023-04-30T09:38:53;9.70;;;8.80;;
6422;SDS011;3244;42.708;23.288;2023-04-30T09:41:21;11.52;;;10.27;;
6422;SDS011;3244;42.708;23.288;2023-04-30T09:43:49;5.38;;;4.90;;
6422;SDS011;3244;42.708;23.288;2023-04-30T09:46:17;3.53;;;3.25;;
6422;SDS011;3244;42.708;23.288;2023-04-30T09:48:45;4.60;;;4.22;;
6422;SDS011;3244;42.708;23.288;2023-04-30T09:51:13;3.58;;;3.28;;
6422;SDS011;3244;42.708;23.288;2023-04-30T09:53:41;3.67;;;3.40;;
6422;SDS011;3244;42.708;23.288;2023-04-30T09:56:08;4.20;;;3.90;;
6422;SDS011;3244;42.708;23.288;2023-04-30T09:58:39;3.25;;;2.95;;
6422;SDS011;3244;42.708;23.288;2023-04-30T10:01:10;4.13;;;3.83;;
6422;SDS011;3244;42.708;23.288;2023-04-30T10:03:37;4.40;;;3.67;;
6422;SDS011;3244;42.708;23.288;2023-04-30T10:06:05;4.68;;;3.30;;
6422;SDS011;3244;42.708;23.288;2023-04-30T10:08:35;5.90;;;5.50;;
6422;SDS011;3244;42.708;23.288;2023-04-30T10:11:06;13.20;;;9.88;;
6422;SDS011;3244;42.708;23.288;2023-04-30T10:13:39;13.10;;;10.18;;
6422;SDS011;3244;42.708;23.288;2023-04-30T10:16:11;4.45;;;3.60;;
6422;SDS011;3244;42.708;23.288;2023-04-30T10:18:43;4.97;;;4.00;;
6422;SDS011;3244;42.708;23.288;2023-04-30T10:21:13;8.02;;;3.28;;
6422;SDS011;3244;42.708;23.288;2023-04-30T10:23:43;6.95;;;5.15;;
6422;SDS011;3244;42.708;23.288;2023-04-30T10:26:10;9.13;;;4.50;;
6422;SDS011;3244;42.708;23.288;2023-04-30T10:28:38;15.40;;;5.40;;
6422;SDS011;3244;42.708;23.288;2023-04-30T10:31:06;4.43;;;3.67;;
6422;SDS011;3244;42.708;23.288;2023-04-30T10:33:36;4.75;;;4.32;;
6422;SDS011;3244;42.708;23.288;2023-04-30T10:36:14;7.15;;;4.07;;
6422;SDS011;3244;42.708;23.288;2023-04-30T10:38:49;5.72;;;4.05;;
6422;SDS011;3244;42.708;23.288;2023-04-30T10:41:18;4.50;;;4.10;;
6422;SDS011;3244;42.708;23.288;2023-04-30T10:43:47;4.72;;;3.60;;
6422;SDS011;3244;42.708;23.288;2023-04-30T10:46:20;3.95;;;3.70;;
6422;SDS011;3244;42.708;23.288;2023-04-30T10:48:47;4.97;;;4.50;;
6422;SDS011;3244;42.708;23.288;2023-04-30T10:51:14;4.63;;;4.15;;
6422;SDS011;3244;42.708;23.288;2023-04-30T10:53:41;4.45;;;4.15;;
6422;SDS011;3244;42.708;23.288;2023-04-30T10:56:09;4.55;;;4.25;;
6422;SDS011;3244;42.708;23.288;2023-04-30T10:58:37;3.80;;;3.60;;
6422;SDS011;3244;42.708;23.288;2023-04-30T11:01:07;3.55;;;3.25;;
6422;SDS011;3244;42.708;23.288;2023-04-30T11:03:39;2.80;;;2.70;;
6422;SDS011;3244;42.708;23.288;2023-04-30T11:06:07;6.28;;;5.32;;
6422;SDS011;3244;42.708;23.288;2023-04-30T11:08:36;14.15;;;11.52;;
6422;SDS011;3244;42.708;23.288;2023-04-30T11:11:04;6.03;;;5.10;;
6422;SDS011;3244;42.708;23.288;2023-04-30T11:13:40;3.17;;;2.97;;
6422;SDS011;3244;42.708;23.288;2023-04-30T11:16:10;16.98;;;12.82;;
6422;SDS011;3244;42.708;23.288;2023-04-30T11:18:40;4.60;;;4.20;;
6422;SDS011;3244;42.708;23.288;2023-04-30T11:21:08;4.00;;;3.60;;
6422;SDS011;3244;42.708;23.288;2023-04-30T11:23:35;3.45;;;2.90;;
6422;SDS011;3244;42.708;23.288;2023-04-30T11:26:02;2.97;;;2.78;;
6422;SDS011;3244;42.708;23.288;2023-04-30T11:28:31;3.45;;;2.80;;
6422;SDS011;3244;42.708;23.288;2023-04-30T11:31:00;2.72;;;2.53;;
6422;SDS011;3244;42.708;23.288;2023-04-30T11:33:29;2.80;;;2.28;;
6422;SDS011;3244;42.708;23.288;2023-04-30T11:35:57;3.30;;;3.10;;
6422;SDS011;3244;42.708;23.288;2023-04-30T11:38:26;2.75;;;2.60;;
6422;SDS011;3244;42.708;23.288;2023-04-30T11:40:54;3.05;;;2.85;;
6422;SDS011;3244;42.708;23.288;2023-04-30T11:43:22;6.03;;;3.13;;
6422;SDS011;3244;42.708;23.288;2023-04-30T11:48:44;4.63;;;4.32;;
6422;SDS011;3244;42.708;23.288;2023-04-30T11:51:14;4.07;;;3.65;;
6422;SDS011;3244;42.708;23.288;2023-04-30T11:53:44;6.40;;;5.90;;
6422;SDS011;3244;42.708;23.288;2023-04-30T11:56:11;3.95;;;3.63;;
6422;SDS011;3244;42.708;23.288;2023-04-30T11:58:38;4.75;;;4.38;;
6422;SDS011;3244;42.708;23.288;2023-04-30T12:01:05;6.40;;;4.68;;
6422;SDS011;3244;42.708;23.288;2023-04-30T12:03:39;4.15;;;3.42;;
6422;SDS011;3244;42.708;23.288;2023-04-30T12:06:09;7.93;;;4.20;;
6422;SDS011;3244;42.708;23.288;2023-04-30T12:08:37;4.95;;;4.55;;
6422;SDS011;3244;42.708;23.288;2023-04-30T12:11:17;4.57;;;4.25;;
6422;SDS011;3244;42.708;23.288;2023-04-30T12:13:48;5.43;;;5.03;;
6422;SDS011;3244;42.708;23.288;2023-04-30T12:16:16;4.93;;;4.45;;
6422;SDS011;3244;42.708;23.288;2023-04-30T12:18:43;4.72;;;4.18;;
6422;SDS011;3244;42.708;23.288;2023-04-30T12:21:12;4.80;;;4.50;;
6422;SDS011;3244;42.708;23.288;2023-04-30T12:23:39;5.25;;;4.95;;
6422;SDS011;3244;42.708;23.288;2023-04-30T12:26:06;14.45;;;9.90;;
6422;SDS011;3244;42.708;23.288;2023-04-30T12:28:33;5.60;;;4.10;;
6422;SDS011;3244;42.708;23.288;2023-04-30T12:31:00;4.10;;;3.90;;
6422;SDS011;3244;42.708;23.288;2023-04-30T12:33:29;3.95;;;3.75;;
6422;SDS011;3244;42.708;23.288;2023-04-30T12:35:56;3.92;;;3.72;;
6422;SDS011;3244;42.708;23.288;2023-04-30T12:38:24;4.53;;;3.63;;
6422;SDS011;3244;42.708;23.288;2023-04-30T12:40:51;3.22;;;3.03;;
6422;SDS011;3244;42.708;23.288;2023-04-30T12:43:18;2.88;;;2.67;;
6422;SDS011;3244;42.708;23.288;2023-04-30T12:45:46;4.05;;;3.75;;
6422;SDS011;3244;42.708;23.288;2023-04-30T12:48:15;3.83;;;3.63;;
6422;SDS011;3244;42.708;23.288;2023-04-30T12:50:47;3.60;;;3.28;;
6422;SDS011;3244;42.708;23.288;2023-04-30T12:53:19;3.83;;;3.53;;
6422;SDS011;3244;42.708;23.288;2023-04-30T12:56:07;3.47;;;3.10;;
6422;SDS011;3244;42.708;23.288;2023-04-30T12:58:37;3.15;;;3.00;;
6422;SDS011;3244;42.708;23.288;2023-04-30T13:01:04;4.22;;;3.90;;
6422;SDS011;3244;42.708;23.288;2023-04-30T13:03:35;4.57;;;3.65;;
6422;SDS011;3244;42.708;23.288;2023-04-30T13:06:02;6.88;;;3.53;;
6422;SDS011;3244;42.708;23.288;2023-04-30T13:08:31;3.72;;;3.42;;
6422;SDS011;3244;42.708;23.288;2023-04-30T13:10:58;4.22;;;3.92;;
6422;SDS011;3244;42.708;23.288;2023-04-30T13:13:26;7.22;;;4.55;;
6422;SDS011;3244;42.708;23.288;2023-04-30T13:15:53;3.97;;;3.50;;
6422;SDS011;3244;42.708;23.288;2023-04-30T13:18:20;3.50;;;3.20;;
6422;SDS011;3244;42.708;23.288;2023-04-30T13:20:46;3.90;;;3.70;;
6422;SDS011;3244;42.708;23.288;2023-04-30T13:23:13;5.38;;;3.42;;
6422;SDS011;3244;42.708;23.288;2023-04-30T13:25:40;3.90;;;3.60;;
6422;SDS011;3244;42.708;23.288;2023-04-30T13:28:07;3.70;;;3.40;;
6422;SDS011;3244;42.708;23.288;2023-04-30T13:30:36;3.58;;;3.33;;
6422;SDS011;3244;42.708;23.288;2023-04-30T13:33:03;3.55;;;3.25;;
6422;SDS011;3244;42.708;23.288;2023-04-30T13:35:30;2.92;;;2.72;;
6422;SDS011;3244;42.708;23.288;2023-04-30T13:37:57;3.33;;;3.13;;
6422;SDS011;3244;42.708;23.288;2023-04-30T13:40:25;2.83;;;2.72;;
6422;SDS011;3244;42.708;23.288;2023-04-30T13:42:51;3.45;;;3.15;;
6422;SDS011;3244;42.708;23.288;2023-04-30T13:45:18;3.42;;;3.00;;
6422;SDS011;3244;42.708;23.288;2023-04-30T13:47:46;4.07;;;3.13;;
6422;SDS011;3244;42.708;23.288;2023-04-30T13:50:13;3.20;;;2.90;;
6422;SDS011;3244;42.708;23.288;2023-04-30T13:52:40;2.58;;;2.47;;
6422;SDS011;3244;42.708;23.288;2023-04-30T13:55:07;3.30;;;3.05;;
6422;SDS011;3244;42.708;23.288;2023-04-30T13:57:34;4.70;;;3.10;;
6422;SDS011;3244;42.708;23.288;2023-04-30T14:00:02;3.80;;;3.40;;
6422;SDS011;3244;42.708;23.288;2023-04-30T14:02:30;3.22;;;2.92;;
6422;SDS011;3244;42.708;23.288;2023-04-30T14:04:58;4.28;;;3.70;;
6422;SDS011;3244;42.708;23.288;2023-04-30T14:07:27;3.40;;;3.08;;
6422;SDS011;3244;42.708;23.288;2023-04-30T14:09:54;3.08;;;2.92;;
6422;SDS011;3244;42.708;23.288;2023-04-30T14:12:21;3.13;;;2.92;;
6422;SDS011;3244;42.708;23.288;2023-04-30T14:14:48;4.68;;;2.25;;
6422;SDS011;3244;42.708;23.288;2023-04-30T14:17:15;3.30;;;3.00;;
6422;SDS011;3244;42.708;23.288;2023-04-30T14:19:42;4.03;;;3.13;;
6422;SDS011;3244;42.708;23.288;2023-04-30T14:22:10;3.85;;;3.47;;
6422;SDS011;3244;42.708;23.288;2023-04-30T14:24:37;3.22;;;3.03;;
6422;SDS011;3244;42.708;23.288;2023-04-30T14:27:04;3.90;;;3.70;;
6422;SDS011;3244;42.708;23.288;2023-04-30T14:29:31;3.30;;;3.10;;
6422;SDS011;3244;42.708;23.288;2023-04-30T14:31:57;2.97;;;2.78;;
6422;SDS011;3244;42.708;23.288;2023-04-30T14:34:25;3.28;;;3.00;;
6422;SDS011;3244;42.708;23.288;2023-04-30T14:36:52;6.03;;;2.88;;
6422;SDS011;3244;42.708;23.288;2023-04-30T14:39:20;4.25;;;2.90;;
6422;SDS011;3244;42.708;23.288;2023-04-30T14:41:47;2.97;;;2.78;;
6422;SDS011;3244;42.708;23.288;2023-04-30T14:44:13;3.22;;;2.55;;
6422;SDS011;3244;42.708;23.288;2023-04-30T14:46:40;14.55;;;10.65;;
6422;SDS011;3244;42.708;23.288;2023-04-30T14:49:07;15.45;;;13.43;;
6422;SDS011;3244;42.708;23.288;2023-04-30T14:51:34;14.23;;;11.65;;
6422;SDS011;3244;42.708;23.288;2023-04-30T14:54:01;5.28;;;4.88;;
6422;SDS011;3244;42.708;23.288;2023-04-30T14:56:29;11.77;;;9.25;;
6422;SDS011;3244;42.708;23.288;2023-04-30T14:58:56;7.82;;;7.13;;
6422;SDS011;3244;42.708;23.288;2023-04-30T15:01:22;4.38;;;4.05;;
6422;SDS011;3244;42.708;23.288;2023-04-30T15:03:49;7.13;;;3.55;;
6422;SDS011;3244;42.708;23.288;2023-04-30T15:06:17;3.55;;;3.25;;
6422;SDS011;3244;42.708;23.288;2023-04-30T15:08:44;7.13;;;6.03;;